Aeroporto :
LOGIN :

Iscrizione | Disclaimer

   EN    FR    IT 

 










Sommario :    VFR   VFR Marginale   IFR   IFR Intensivo   IFR Molto Intensivo
Visibilità : 
Base nubi : 
>= 8 km
>= 3000ft
5 / 8 km
1000 / 3000 ft
1500m / 5 km
500 / 1000 ft
800 / 1500m
200 / 500 ft
< 800m
< 200 ft
Simboli :   Temporali  Nebbia  Neve Forte  Precipitazioni Forti  Vento > 20 kt
SIGMETs :   Varie  Temporali  Ghiacco  Turbolenza  Onda orograficha  Ceneri Vulcaniche






- Altitudine del aeroporto : 116 ft
- Codice IATA : ISC


EGHE - Scilly Isles / St Mary's

ULTIMO METAR :
  • 150920Z 26007KT 9999 FEW020 20/17 Q1003

METARs OBSOLETI :
  • 150850Z 26008KT 9999 FEW017 20/18 Q1003
  • 150820Z 26009KT 9999 FEW015 19/17 Q1003
  • 150750Z 26007KT 9999 FEW010 20/18 Q1003
  • 150720Z 26006KT 9999 FEW015 19/18 Q1003
  • 150650Z 27006KT 9999 FEW016 19/18 Q1003

TAF TAF EGHE
Valido dal 15 a 09 ore il 15 a 18 ore UTC


150800Z 1509/1518 26008KT 9999 FEW020
TEMPO 1509/1518 7000 SHRA
PROB30
TEMPO 1515/1518 3000 +SHRA



MetMap, La meteo Aeronautica in un colpo d'occhio ! - Copyright ORBIFLY Dicembre 2007 - Disclaimer

ORBIFLY MET'MAP TEAM :

Programmazione e sviluppo : Alexandra Zaïnal
Concezione : Baudouin d'Aumeries
Supporto tecnico e logistico : Manuel Goepfert
Aiuto : Marc-Olivier Méhu
Aiuto per la traduzione : Arnaldo La Scala




FONTI E CREDITI :

   NOAA